Time;durP1;ratioP1;P1;durP2;ratioP2;P2;SDS_P1;SDS_P2;PMS_P1;PMS_P2;Temp;Humidity;BMP_temperature;BMP_pressure;BME280_temperature;BME280_humidity;BME280_pressure;Samples;Min_cycle;Max_cycle;Signal;HPM_P1;HPM_P2
2022/11/29 00:00:47;;;;;;;286.73;34.17;;;;;;;;;;5050502;28;20468;-78
2022/11/29 00:03:13;;;;;;;256.00;33.50;;;;;;;;;;5036875;28;20494;-78
2022/11/29 00:05:39;;;;;;;276.53;34.63;;;;;;;;;;5051156;28;20473;-78
2022/11/29 00:08:05;;;;;;;283.20;33.47;;;;;;;;;;5035605;28;20446;-79
2022/11/29 00:10:31;;;;;;;266.05;33.88;;;;;;;;;;5050200;28;20427;-79
2022/11/29 00:12:57;;;;;;;342.45;36.20;;;;;;;;;;5015238;28;20421;-78
2022/11/29 00:15:23;;;;;;;327.63;36.13;;;;;;;;;;5032236;28;20918;-78
2022/11/29 00:17:49;;;;;;;362.80;37.15;;;;;;;;;;5053169;28;20755;-78
2022/11/29 00:20:15;;;;;;;421.80;40.60;;;;;;;;;;5033423;28;21557;-79
2022/11/29 00:22:41;;;;;;;338.77;36.77;;;;;;;;;;5015719;28;20421;-78
2022/11/29 00:25:08;;;;;;;338.63;37.67;;;;;;;;;;5016168;28;20415;-78
2022/11/29 00:27:34;;;;;;;282.00;34.60;;;;;;;;;;5030088;28;20444;-79
2022/11/29 00:30:00;;;;;;;329.73;36.10;;;;;;;;;;5024440;28;20494;-79
2022/11/29 00:32:26;;;;;;;393.65;38.85;;;;;;;;;;5026695;28;20422;-79
2022/11/29 00:34:52;;;;;;;311.20;34.80;;;;;;;;;;5020833;28;20427;-79
2022/11/29 00:37:18;;;;;;;340.07;38.10;;;;;;;;;;5048828;28;20741;-79
2022/11/29 00:39:44;;;;;;;358.05;40.50;;;;;;;;;;5047319;28;20524;-79
2022/11/29 00:42:10;;;;;;;325.52;37.40;;;;;;;;;;5023637;28;20427;-79
2022/11/29 00:44:36;;;;;;;203.00;31.23;;;;;;;;;;5034146;28;20430;-78
2022/11/29 00:47:02;;;;;;;228.23;31.67;;;;;;;;;;5037738;28;20451;-78
2022/11/29 00:49:28;;;;;;;228.82;32.85;;;;;;;;;;5032905;28;20421;-78
2022/11/29 00:51:54;;;;;;;269.27;34.45;;;;;;;;;;5050138;28;20918;-79
2022/11/29 00:54:21;;;;;;;287.55;35.35;;;;;;;;;;5045338;28;20419;-79
2022/11/29 00:56:47;;;;;;;343.25;39.65;;;;;;;;;;5055239;28;20420;-79
2022/11/29 00:59:13;;;;;;;379.98;38.28;;;;;;;;;;5053679;28;20424;-79
2022/11/29 01:01:39;;;;;;;324.75;37.35;;;;;;;;;;5033647;28;20476;-79
2022/11/29 01:04:05;;;;;;;292.30;36.45;;;;;;;;;;5052790;28;20427;-78
2022/11/29 01:06:31;;;;;;;286.75;35.58;;;;;;;;;;5056018;28;20934;-78
2022/11/29 01:08:57;;;;;;;269.73;35.00;;;;;;;;;;5038888;28;20415;-78
2022/11/29 01:11:25;;;;;;;328.60;37.00;;;;;;;;;;5020687;28;20423;-78
2022/11/29 01:13:53;;;;;;;270.17;33.08;;;;;;;;;;5038158;28;20419;-78
2022/11/29 01:16:19;;;;;;;359.07;36.30;;;;;;;;;;5038818;28;20447;-78
2022/11/29 01:18:46;;;;;;;350.23;34.70;;;;;;;;;;5042129;28;20496;-78
2022/11/29 01:21:13;;;;;;;306.20;33.50;;;;;;;;;;5065257;28;20507;-78
2022/11/29 01:23:39;;;;;;;284.40;33.67;;;;;;;;;;5046649;28;20408;-79
2022/11/29 01:26:07;;;;;;;252.15;31.73;;;;;;;;;;5059947;28;20471;-78
2022/11/29 01:28:34;;;;;;;306.65;33.50;;;;;;;;;;5072373;28;20502;-79
2022/11/29 01:31:05;;;;;;;302.33;33.95;;;;;;;;;;5070934;28;20413;-78
2022/11/29 01:33:31;;;;;;;266.67;33.08;;;;;;;;;;5073389;28;20453;-80
2022/11/29 01:35:57;;;;;;;170.13;28.67;;;;;;;;;;5058259;28;20420;-78
2022/11/29 01:38:23;;;;;;;191.88;29.98;;;;;;;;;;5056956;28;20494;-79
2022/11/29 01:41:03;;;;;;;148.15;28.17;;;;;;;;;;5072166;28;20419;-79
2022/11/29 01:43:29;;;;;;;135.13;26.33;;;;;;;;;;5058686;28;20412;-78
2022/11/29 01:45:55;;;;;;;136.68;26.38;;;;;;;;;;5059472;28;20449;-78
2022/11/29 01:48:23;;;;;;;123.82;25.75;;;;;;;;;;5061780;28;20387;-79
2022/11/29 01:50:49;;;;;;;165.85;26.83;;;;;;;;;;5044850;28;20419;-79
2022/11/29 01:53:16;;;;;;;210.15;28.77;;;;;;;;;;5038210;28;20430;-78
2022/11/29 01:55:46;;;;;;;183.90;28.50;;;;;;;;;;5036396;28;20484;-78
2022/11/29 01:58:13;;;;;;;155.35;27.23;;;;;;;;;;5050942;28;20420;-78
2022/11/29 02:00:39;;;;;;;158.93;26.30;;;;;;;;;;5054780;28;20419;-78
2022/11/29 02:03:09;;;;;;;179.77;27.53;;;;;;;;;;5035270;28;20458;-79
2022/11/29 02:05:36;;;;;;;116.35;25.33;;;;;;;;;;5038604;28;20420;-79
2022/11/29 02:08:02;;;;;;;137.88;26.48;;;;;;;;;;5037433;28;20419;-79
2022/11/29 02:10:37;;;;;;;135.63;24.65;;;;;;;;;;5034119;28;20939;-79
2022/11/29 02:13:29;;;;;;;145.15;25.77;;;;;;;;;;5048766;28;20521;-79
2022/11/29 02:16:04;;;;;;;140.98;25.20;;;;;;;;;;5018172;28;20932;-79
2022/11/29 02:18:30;;;;;;;113.80;23.98;;;;;;;;;;5035444;28;20405;-79
2022/11/29 02:21:10;;;;;;;102.88;24.08;;;;;;;;;;5046371;28;20428;-76
2022/11/29 02:23:55;;;;;;;86.30;24.05;;;;;;;;;;5052696;28;20419;-76
2022/11/29 02:26:33;;;;;;;115.70;25.33;;;;;;;;;;5053578;28;20452;-76
2022/11/29 02:29:02;;;;;;;82.80;23.15;;;;;;;;;;5052564;28;20419;-76
2022/11/29 02:31:49;;;;;;;105.30;23.88;;;;;;;;;;5052556;28;20420;-76
2022/11/29 02:34:21;;;;;;;119.85;24.88;;;;;;;;;;5052546;28;20418;-76
2022/11/29 02:37:02;;;;;;;105.53;22.63;;;;;;;;;;5034527;28;20422;-76
2022/11/29 02:39:34;;;;;;;90.50;23.33;;;;;;;;;;5052913;28;20427;-76
2022/11/29 02:42:09;;;;;;;128.48;24.98;;;;;;;;;;5047545;28;20425;-75
2022/11/29 02:44:54;;;;;;;129.50;24.52;;;;;;;;;;5035662;28;20423;-76
2022/11/29 02:47:42;;;;;;;144.93;24.57;;;8.00;99.90;;;;;;5050845;28;20850;-76
2022/11/29 02:50:19;;;;;;;187.32;26.25;;;;;;;;;;5032335;28;20452;-76
2022/11/29 02:52:48;;;;;;;190.88;28.13;;;;;;;;;;5027525;28;20511;-76
2022/11/29 02:55:24;;;;;;;182.98;25.73;;;;;;;;;;5033846;28;20491;-76
2022/11/29 02:57:53;;;;;;;230.30;26.63;;;;;;;;;;5040497;28;20914;-76
2022/11/29 03:00:20;;;;;;;143.63;21.40;;;;;;;;;;5050325;28;20764;-76
2022/11/29 03:02:57;;;;;;;144.95;22.52;;;;;;;;;;5036563;28;20415;-76
2022/11/29 03:05:47;;;;;;;166.05;23.17;;;;;;;;;;5051890;28;20514;-76
2022/11/29 03:08:18;;;;;;;132.77;21.10;;;;;;;;;;5033703;28;20419;-76
2022/11/29 03:11:05;;;;;;;108.32;19.08;;;7.50;99.90;;;;;;5037336;28;20541;-76
2022/11/29 03:13:51;;;;;;;92.25;20.00;;;;;;;;;;5053163;28;20429;-76
2022/11/29 03:16:36;;;;;;;105.97;20.38;;;;;;;;;;5050517;28;20429;-76
2022/11/29 03:19:20;;;;;;;102.50;21.23;;;;;;;;;;5017524;28;20424;-76
2022/11/29 03:21:56;;;;;;;102.80;19.98;;;;;;;;;;5049257;28;20423;-76
2022/11/29 03:24:34;;;;;;;109.22;19.98;;;;;;;;;;5036262;28;20428;-76
2022/11/29 03:27:07;;;;;;;122.90;22.00;;;;;;;;;;5052944;28;20427;-76
2022/11/29 03:29:40;;;;;;;146.27;23.02;;;;;;;;;;5035658;28;20424;-76
2022/11/29 03:32:06;;;;;;;82.10;19.30;;;;;;;;;;5050935;28;20428;-76
2022/11/29 03:34:35;;;;;;;90.50;19.07;;;;;;;;;;5035817;28;21007;-75
2022/11/29 03:37:25;;;;;;;85.80;19.20;;;7.40;99.90;;;;;;5049780;28;20430;-75
2022/11/29 03:39:56;;;;;;;84.05;18.95;;;;;;;;;;5051909;28;20911;-74
2022/11/29 03:42:38;;;;;;;96.77;19.33;;;;;;;;;;5052596;28;20668;-75
2022/11/29 03:45:10;;;;;;;125.03;19.75;;;;;;;;;;5050738;28;20433;-74
2022/11/29 03:47:48;;;;;;;102.40;18.73;;;;;;;;;;5053423;28;20405;-75
2022/11/29 03:50:18;;;;;;;113.22;18.77;;;;;;;;;;5052750;28;20456;-74
2022/11/29 03:52:49;;;;;;;97.25;17.55;;;;;;;;;;5051769;28;20418;-75
2022/11/29 03:55:33;;;;;;;129.38;18.65;;;;;;;;;;5052632;28;20416;-74
2022/11/29 03:58:16;;;;;;;130.95;18.65;;;;;;;;;;5051493;28;20450;-75
2022/11/29 04:00:56;;;;;;;142.73;19.47;;;;;;;;;;5049822;28;20422;-74
2022/11/29 04:03:25;;;;;;;126.38;18.17;;;;;;;;;;5052560;28;20510;-74
2022/11/29 04:06:26;;;;;;;151.90;19.67;;;;;;;;;;5052454;28;20557;-74
2022/11/29 04:09:20;;;;;;;112.88;17.63;;;;;;;;;;4971307;28;20433;-74
2022/11/29 04:11:58;;;;;;;136.45;18.98;;;;;;;;;;5046515;28;20423;-74
2022/11/29 04:14:40;;;;;;;184.75;20.80;;;;;;;;;;5063766;28;20469;-74
2022/11/29 04:17:18;;;;;;;189.75;19.58;;;;;;;;;;5053078;28;20483;-75
2022/11/29 04:19:44;;;;;;;197.73;21.30;;;;;;;;;;5051651;28;20423;-75
2022/11/29 04:22:29;;;;;;;202.32;20.30;;;;;;;;;;5039144;28;20815;-75
2022/11/29 04:25:03;;;;;;;203.25;21.30;;;;;;;;;;5035390;28;20425;-75
2022/11/29 04:27:48;;;;;;;243.70;22.15;;;;;;;;;;5028984;28;20492;-75
2022/11/29 04:30:22;;;;;;;239.88;21.00;;;;;;;;;;5038801;28;20424;-75
2022/11/29 04:33:06;;;;;;;194.40;19.17;;;;;;;;;;5038166;28;20454;-75
2022/11/29 04:35:38;;;;;;;423.27;36.92;;;;;;;;;;5055411;28;20511;-75
2022/11/29 04:38:28;;;;;;;213.90;19.95;;;7.40;99.90;;;;;;5046432;28;20424;-75
2022/11/29 04:41:04;;;;;;;156.10;19.00;;;;;;;;;;5037584;28;20393;-75
2022/11/29 04:43:46;;;;;;;201.25;20.05;;;;;;;;;;5047864;28;20420;-75
2022/11/29 04:46:30;;;;;;;210.45;19.48;;;;;;;;;;5050651;28;20423;-75
2022/11/29 04:49:03;;;;;;;221.93;20.05;;;;;;;;;;5055896;28;20787;-75
2022/11/29 04:51:47;;;;;;;185.10;19.47;;;;;;;;;;5055788;28;20857;-75
2022/11/29 04:54:13;;;;;;;211.25;21.05;;;;;;;;;;5054808;28;20414;-75
2022/11/29 04:56:42;;;;;;;226.00;20.77;;;;;;;;;;5038127;28;20791;-75
2022/11/29 04:59:20;;;;;;;219.80;19.75;;;;;;;;;;5038314;28;20419;-74
2022/11/29 05:02:23;;;;;;;202.32;20.75;;;6.80;99.90;;;;;;5056249;28;20419;-74
2022/11/29 05:04:57;;;;;;;162.77;17.50;;;;;;;;;;5037103;28;20459;-74
2022/11/29 05:07:34;;;;;;;222.93;19.53;;;;;;;;;;5035791;28;20421;-74
2022/11/29 05:10:18;;;;;;;225.80;19.63;;;;;;;;;;5023387;28;20873;-74
2022/11/29 05:13:11;;;;;;;219.43;19.10;;;;;;;;;;5055092;28;20400;-74
2022/11/29 05:15:52;;;;;;;149.32;18.05;;;;;;;;;;5053509;28;20882;-74
2022/11/29 05:18:21;;;;;;;175.48;19.70;;;;;;;;;;5056263;28;20752;-74
2022/11/29 05:20:52;;;;;;;205.60;19.63;;;;;;;;;;5051896;28;20447;-74
2022/11/29 05:23:37;;;;;;;172.32;18.67;;;;;;;;;;5054859;28;20431;-74
2022/11/29 05:26:03;;;;;;;156.10;17.57;;;;;;;;;;5069169;28;20456;-74
2022/11/29 05:28:32;;;;;;;141.95;17.10;;;;;;;;;;5040306;28;20600;-74
2022/11/29 05:31:19;;;;;;;125.68;15.95;;;;;;;;;;5033871;28;20940;-74
2022/11/29 05:34:04;;;;;;;170.98;18.75;;;;;;;;;;5007196;28;20476;-74
2022/11/29 05:36:54;;;;;;;132.98;17.33;;;;;;;;;;5046417;28;20424;-75
2022/11/29 05:39:31;;;;;;;155.18;17.85;;;;;;;;;;5054862;28;20431;-76
2022/11/29 05:42:35;;;;;;;128.13;17.85;;;6.80;99.90;;;;;;5049715;28;20421;-76
2022/11/29 05:45:12;;;;;;;144.23;17.15;;;;;;;;;;5042188;28;20837;-76
2022/11/29 05:47:48;;;;;;;166.52;18.75;;;;;;;;;;5029269;28;20465;-76
2022/11/29 05:50:17;;;;;;;141.95;17.48;;;;;;;;;;5047159;28;20451;-76
2022/11/29 05:53:10;;;;;;;137.50;18.05;;;;;;;;;;5036972;28;20450;-76
2022/11/29 05:55:45;;;;;;;193.02;20.77;;;;;;;;;;5048070;28;20430;-76
2022/11/29 05:58:16;;;;;;;162.27;18.08;;;;;;;;;;5054200;28;20427;-76
2022/11/29 06:01:18;;;;;;;122.25;18.33;;;;;;;;;;5053183;28;20556;-76
2022/11/29 06:04:07;;;;;;;117.53;17.25;;;;;;;;;;4967407;28;20453;-75
2022/11/29 06:06:33;;;;;;;209.57;20.77;;;;;;;;;;5039113;28;20485;-76
2022/11/29 06:09:05;;;;;;;344.70;34.15;;;;;;;;;;5048867;28;20843;-76
2022/11/29 06:11:37;;;;;;;269.13;27.05;;;;;;;;;;5053329;28;20431;-76
2022/11/29 06:14:08;;;;;;;163.23;20.35;;;;;;;;;;5049509;28;20417;-76
2022/11/29 06:16:45;;;;;;;166.05;20.38;;;;;;;;;;5037866;28;20523;-76
2022/11/29 06:19:29;;;;;;;154.18;18.77;;;;;;;;;;5052734;28;20408;-76
2022/11/29 06:21:59;;;;;;;327.70;30.55;;;;;;;;;;5052386;28;20430;-76
2022/11/29 06:24:45;;;;;;;243.48;25.02;;;;;;;;;;5054064;28;20507;-76
2022/11/29 06:27:30;;;;;;;171.13;20.38;;;;;;;;;;5054342;28;20779;-76
2022/11/29 06:29:56;;;;;;;804.88;65.03;;;;;;;;;;5057437;28;20425;-76
2022/11/29 06:32:26;;;;;;;257.63;27.63;;;;;;;;;;5031528;28;20736;-76
2022/11/29 06:35:07;;;;;;;250.98;26.80;;;;;;;;;;5029150;28;20419;-76
2022/11/29 06:37:36;;;;;;;131.43;20.40;;;;;;;;;;5030344;28;20407;-76
2022/11/29 06:40:03;;;;;;;223.38;26.65;;;;;;;;;;5028373;28;20830;-76
2022/11/29 06:42:29;;;;;;;408.60;36.35;;;;;;;;;;4998446;28;20916;-76
2022/11/29 06:44:55;;;;;;;141.20;20.02;;;;;;;;;;5007500;28;20778;-76
2022/11/29 06:47:35;;;;;;;127.45;21.75;;;;;;;;;;5010185;28;20446;-75
2022/11/29 06:50:26;;;;;;;98.75;19.48;;;;;;;;;;5030364;28;20481;-76
2022/11/29 06:53:00;;;;;;;103.25;19.67;;;;;;;;;;5032225;28;20426;-73
2022/11/29 06:55:28;;;;;;;135.17;22.03;;;;;;;;;;5037122;28;20423;-75
2022/11/29 06:58:00;;;;;;;119.35;20.00;;;;;;;;;;5025933;28;20426;-76
2022/11/29 07:00:31;;;;;;;125.43;20.10;;;;;;;;;;5026953;28;20427;-75
2022/11/29 07:02:57;;;;;;;137.88;21.95;;;;;;;;;;5033235;28;20949;-76
2022/11/29 07:05:25;;;;;;;134.27;21.03;;;;;;;;;;5031045;28;20419;-75
2022/11/29 07:07:53;;;;;;;77.43;18.52;;;;;;;;;;5011431;28;20835;-75
2022/11/29 07:10:20;;;;;;;90.13;18.67;;;;;;;;;;5013834;28;20436;-75
2022/11/29 07:12:47;;;;;;;112.25;19.63;;;;;;;;;;5030728;28;20423;-76
2022/11/29 07:15:14;;;;;;;106.75;20.17;;;;;;;;;;5019333;28;20934;-77
2022/11/29 07:17:44;;;;;;;97.93;18.77;;;;;;;;;;5002158;28;20413;-75
2022/11/29 07:20:13;;;;;;;96.88;18.77;;;;;;;;;;5002216;28;20420;-76
2022/11/29 07:22:46;;;;;;;89.25;18.60;;;;;;;;;;5004703;28;20434;-75
2022/11/29 07:25:28;;;;;;;108.40;19.13;;;;;;;;;;5019159;28;20642;-75
2022/11/29 07:28:00;;;;;;;120.75;18.65;;;;;;;;;;5005317;28;20485;-76
2022/11/29 07:30:32;;;;;;;80.88;18.55;;;;;;;;;;5027143;28;20440;-76
2022/11/29 07:33:07;;;;;;;94.03;19.20;;;;;;;;;;5026040;28;20435;-76
2022/11/29 07:35:33;;;;;;;87.38;18.27;;;;;;;;;;5029493;28;20431;-76
2022/11/29 07:38:02;;;;;;;88.75;19.02;;;;;;;;;;5030029;28;20476;-76
2022/11/29 07:40:28;;;;;;;76.25;17.52;;;;;;;;;;5030288;28;20499;-76
2022/11/29 07:43:05;;;;;;;65.18;17.95;;;;;;;;;;5027682;28;20938;-76
2022/11/29 07:45:34;;;;;;;66.20;17.00;;;;;;;;;;5028343;28;20419;-76
2022/11/29 07:48:01;;;;;;;63.97;18.17;;;;;;;;;;5021855;28;20411;-76
2022/11/29 07:50:28;;;;;;;45.13;16.50;;;;;;;;;;5023285;28;20549;-75
2022/11/29 07:52:54;;;;;;;52.80;17.13;;;;;;;;;;5015774;28;20499;-75
2022/11/29 07:55:22;;;;;;;45.55;16.98;;;;;;;;;;5029297;28;20469;-77
2022/11/29 07:57:48;;;;;;;41.28;16.67;;;;;;;;;;5025890;28;20430;-75
2022/11/29 08:00:14;;;;;;;37.65;16.13;;;;;;;;;;5031613;28;20427;-75
2022/11/29 08:02:41;;;;;;;39.88;16.25;;;;;;;;;;5011235;28;20422;-75
2022/11/29 08:05:07;;;;;;;37.38;16.38;;;;;;;;;;5028793;28;20898;-75
2022/11/29 08:07:34;;;;;;;38.87;16.03;;;;;;;;;;5014096;28;20564;-75
2022/11/29 08:10:00;;;;;;;36.55;15.60;;;;;;;;;;5016013;28;20831;-76
2022/11/29 08:12:26;;;;;;;35.63;15.48;;;;;;;;;;5030729;28;20418;-76
2022/11/29 08:14:52;;;;;;;35.08;15.90;;;;;;;;;;5028236;28;20922;-76
2022/11/29 08:17:18;;;;;;;37.28;15.68;;;;;;;;;;5029706;28;20437;-76
2022/11/29 08:19:44;;;;;;;33.70;15.80;;;;;;;;;;5024431;28;20522;-77
2022/11/29 08:22:11;;;;;;;36.65;15.93;;;;;;;;;;5029235;28;20462;-77
2022/11/29 08:24:38;;;;;;;36.13;16.00;;;;;;;;;;5027597;28;20957;-76
2022/11/29 08:27:04;;;;;;;34.63;15.35;;;;;;;;;;5013436;28;20469;-76
2022/11/29 08:29:30;;;;;;;34.40;15.73;;;;;;;;;;5017795;28;20482;-76
2022/11/29 08:31:56;;;;;;;36.40;15.13;;;;;;;;;;5017692;28;20425;-75
2022/11/29 08:34:23;;;;;;;31.90;15.50;;;;;;;;;;5040081;28;20468;-75
2022/11/29 08:36:49;;;;;;;33.53;15.87;;;;;;;;;;5051162;28;20952;-75
2022/11/29 08:39:15;;;;;;;34.42;14.98;;;;;;;;;;5052824;28;20507;-76
2022/11/29 08:41:42;;;;;;;32.03;14.73;;;;;;;;;;5047737;28;20422;-77
2022/11/29 08:44:08;;;;;;;32.08;14.98;;;;;;;;;;5036998;28;20428;-77
2022/11/29 08:49:18;;;;;;;35.25;14.80;;;;;;;;;;5037400;28;20477;-75
2022/11/29 08:51:45;;;;;;;35.53;14.68;;;;;;;;;;5024251;28;20415;-75
2022/11/29 08:54:11;;;;;;;32.73;14.90;;;;;;;;;;5049563;28;20423;-76
2022/11/29 08:56:37;;;;;;;33.72;15.02;;;;;;;;;;5049873;28;20956;-74
2022/11/29 08:59:04;;;;;;;34.90;15.80;;;;;;;;;;5037080;28;20481;-74
2022/11/29 09:01:30;;;;;;;40.97;15.95;;;;;;;;;;5034306;28;20427;-75
2022/11/29 09:03:59;;;;;;;32.45;14.95;;;;;;;;;;5047724;28;20423;-75
2022/11/29 09:06:29;;;;;;;31.92;14.55;;;;;;;;;;5042300;28;20477;-74
2022/11/29 09:08:56;;;;;;;30.65;14.73;;;;;;;;;;5049840;28;20455;-76
2022/11/29 09:11:23;;;;;;;33.63;13.90;;;;;;;;;;5030865;28;20427;-76
2022/11/29 09:13:51;;;;;;;35.73;13.53;;;;;;;;;;5034990;28;20502;-76
2022/11/29 09:16:19;;;;;;;30.63;14.30;;;;;;;;;;5037665;28;20508;-76
2022/11/29 09:18:47;;;;;;;30.27;14.05;;;;;;;;;;5052234;28;20427;-75
2022/11/29 09:21:14;;;;;;;30.27;13.45;;;;;;;;;;5053800;28;20461;-75
2022/11/29 09:23:41;;;;;;;30.35;13.30;;;;;;;;;;5048135;28;20460;-77
2022/11/29 09:26:08;;;;;;;31.35;14.25;;;;;;;;;;5046270;28;20466;-76
2022/11/29 09:28:34;;;;;;;28.38;12.82;;;;;;;;;;5032758;28;20807;-76
2022/11/29 09:31:08;;;;;;;30.80;12.40;;;;;;;;;;5042846;28;20436;-76
2022/11/29 09:33:34;;;;;;;31.63;13.10;;;;;;;;;;5052652;28;20423;-81
2022/11/29 09:36:01;;;;;;;29.67;12.95;;;;;;;;;;5029154;28;20503;-81
2022/11/29 09:38:27;;;;;;;26.90;12.15;;;;;;;;;;5048338;28;20783;-81
2022/11/29 09:41:02;;;;;;;28.48;12.05;;;;;;;;;;5050613;28;20515;-81
2022/11/29 09:43:42;;;;;;;27.85;11.80;;;;;;;;;;5052802;28;20424;-81
2022/11/29 09:46:16;;;;;;;27.55;11.90;;;;;;;;;;5037478;28;20996;-81
2022/11/29 09:49:16;;;;;;;26.40;11.35;;;8.40;99.90;;;;;;5034681;28;20934;-81
2022/11/29 09:51:48;;;;;;;30.55;10.98;;;;;;;;;;5050893;28;20423;-81
2022/11/29 09:54:14;;;;;;;24.65;9.98;;;;;;;;;;5050002;28;20949;-82
2022/11/29 09:56:46;;;;;;;28.63;11.38;;;;;;;;;;5053389;28;20477;-80
2022/11/29 09:59:22;;;;;;;26.77;10.93;;;;;;;;;;5037668;28;20408;-81
2022/11/29 10:01:54;;;;;;;26.05;11.07;;;;;;;;;;5052980;28;20943;-80
2022/11/29 10:04:23;;;;;;;28.65;10.95;;;;;;;;;;5042770;28;20901;-80
2022/11/29 10:07:10;;;;;;;28.45;10.48;;;;;;;;;;5046256;28;20416;-80
2022/11/29 10:10:02;;;;;;;28.48;11.15;;;;;;;;;;5007386;28;20835;-81
2022/11/29 10:12:47;;;;;;;30.58;11.00;;;8.90;99.90;;;;;;5046652;28;20477;-79
2022/11/29 10:15:24;;;;;;;21.75;9.75;;;;;;;;;;5050878;28;20443;-80
2022/11/29 10:18:10;;;;;;;26.13;9.43;;;;;;;;;;5029109;28;20432;-79
2022/11/29 10:20:38;;;;;;;25.43;9.93;;;;;;;;;;5052971;28;20897;-79
2022/11/29 10:23:22;;;;;;;23.48;9.50;;;;;;;;;;5043809;28;20448;-80
2022/11/29 10:25:50;;;;;;;30.75;9.30;;;;;;;;;;5050301;28;20509;-80
2022/11/29 10:28:18;;;;;;;24.77;9.52;;;;;;;;;;5041858;28;20422;-80
2022/11/29 10:30:44;;;;;;;23.38;8.68;;;;;;;;;;5040480;28;20911;-80
2022/11/29 10:33:29;;;;;;;23.73;9.05;;;;;;;;;;5020356;28;20541;-80
2022/11/29 10:35:56;;;;;;;26.35;9.20;;;;;;;;;;5034899;28;20423;-81
2022/11/29 10:38:23;;;;;;;27.65;8.27;;;;;;;;;;5050463;28;20431;-80
2022/11/29 10:40:52;;;;;;;25.77;8.65;;;;;;;;;;5047888;28;20423;-79
2022/11/29 10:43:18;;;;;;;26.17;9.18;;;;;;;;;;5030863;28;20431;-80
2022/11/29 10:45:49;;;;;;;24.17;8.60;;;;;;;;;;5049930;28;20427;-80
2022/11/29 10:48:20;;;;;;;26.40;9.20;;;;;;;;;;5048773;28;20419;-79
2022/11/29 10:50:47;;;;;;;26.60;8.60;;;;;;;;;;5051823;28;20942;-81
2022/11/29 10:53:17;;;;;;;25.80;8.73;;;;;;;;;;5049566;28;20687;-80
2022/11/29 10:55:45;;;;;;;25.90;8.93;;;;;;;;;;5049975;28;20431;-82
2022/11/29 10:58:22;;;;;;;28.33;9.80;;;8.90;99.90;;;;;;5048836;28;20428;-80
2022/11/29 11:00:53;;;;;;;25.67;9.60;;;;;;;;;;5047986;28;20780;-81
2022/11/29 11:03:40;;;;;;;27.00;9.52;;;;;;;;;;5043423;28;20909;-80
2022/11/29 11:06:12;;;;;;;25.52;9.38;;;;;;;;;;5040524;28;20994;-81
2022/11/29 11:08:39;;;;;;;29.85;9.75;;;;;;;;;;5024363;28;20427;-81
2022/11/29 11:11:06;;;;;;;25.40;10.20;;;;;;;;;;5049948;28;20427;-81
2022/11/29 11:13:32;;;;;;;26.00;9.75;;;;;;;;;;5022075;28;20498;-81
2022/11/29 11:16:19;;;;;;;30.42;9.57;;;9.20;99.90;;;;;;5024720;28;20493;-81
2022/11/29 11:18:47;;;;;;;27.63;9.43;;;;;;;;;;5057906;28;20461;-81
2022/11/29 11:21:18;;;;;;;30.55;10.50;;;;;;;;;;5070503;28;20482;-79
2022/11/29 11:23:47;;;;;;;30.20;10.00;;;;;;;;;;5066740;28;20499;-80
2022/11/29 11:26:14;;;;;;;28.30;9.98;;;;;;;;;;5060191;28;20423;-81
2022/11/29 11:28:46;;;;;;;29.37;10.40;;;;;;;;;;5050475;28;20583;-80
2022/11/29 11:31:12;;;;;;;30.83;10.95;;;;;;;;;;5057283;28;20432;-81
2022/11/29 11:33:40;;;;;;;28.65;11.30;;;;;;;;;;5072020;28;20427;-80
2022/11/29 11:36:13;;;;;;;32.90;11.70;;;;;;;;;;5037214;28;20449;-82
2022/11/29 11:38:41;;;;;;;32.60;11.20;;;;;;;;;;5063006;28;20451;-80
2022/11/29 11:41:20;;;;;;;32.45;11.35;;;;;;;;;;5063861;28;20427;-79
2022/11/29 11:43:55;;;;;;;27.95;11.95;;;9.50;99.90;;;;;;5049475;28;20430;-79
2022/11/29 11:46:22;;;;;;;33.40;12.27;;;;;;;;;;5036620;28;20842;-80
2022/11/29 11:48:49;;;;;;;28.02;11.57;;;9.70;99.90;;;;;;5055234;28;20420;-80
2022/11/29 11:51:24;;;;;;;34.47;13.02;;;;;;;;;;5055510;28;20499;-80
2022/11/29 11:53:52;;;;;;;34.60;12.18;;;;;;;;;;5062815;28;20419;-80
2022/11/29 11:56:18;;;;;;;34.92;13.27;;;;;;;;;;5050225;28;20424;-81
2022/11/29 11:58:48;;;;;;;31.13;12.80;;;;;;;;;;5048841;28;20419;-81
2022/11/29 12:01:16;;;;;;;33.38;12.77;;;;;;;;;;5048146;28;20451;-81
2022/11/29 12:03:49;;;;;;;29.58;12.95;;;;;;;;;;5052232;28;20508;-80
2022/11/29 12:06:27;;;;;;;33.70;13.55;;;;;;;;;;5033173;28;20428;-80
2022/11/29 12:08:55;;;;;;;33.15;12.98;;;;;;;;;;5045805;28;20427;-81
2022/11/29 12:11:22;;;;;;;32.92;13.23;;;;;;;;;;5043877;28;20417;-81
2022/11/29 12:13:54;;;;;;;33.83;12.95;;;;;;;;;;5050592;28;20428;-78
2022/11/29 12:16:26;;;;;;;30.98;12.77;;;;;;;;;;5048755;28;20532;-79
2022/11/29 12:18:56;;;;;;;30.35;13.05;;;;;;;;;;5042665;28;21054;-80
2022/11/29 12:21:25;;;;;;;26.45;12.95;;;;;;;;;;5043546;28;20495;-79
2022/11/29 12:24:10;;;;;;;26.00;12.73;;;;;;;;;;5029679;28;20442;-80
2022/11/29 12:26:38;;;;;;;26.40;12.15;;;;;;;;;;5025414;28;20438;-73
2022/11/29 12:29:17;;;;;;;24.98;12.30;;;10.30;99.90;;;;;;5038786;28;20408;-73
2022/11/29 12:31:44;;;;;;;24.40;12.90;;;;;;;;;;5048722;28;20906;-75
2022/11/29 12:34:16;;;;;;;24.63;13.02;;;;;;;;;;5052028;28;20399;-74
2022/11/29 12:36:48;;;;;;;25.42;13.45;;;;;;;;;;5030436;28;20428;-75
2022/11/29 12:39:27;;;;;;;21.35;12.73;;;;;;;;;;5047542;28;20462;-74
2022/11/29 12:42:17;;;;;;;21.07;12.50;;;;;;;;;;5031805;28;20784;-74
2022/11/29 12:44:43;;;;;;;17.63;11.70;;;;;;;;;;5039008;28;20410;-74
2022/11/29 12:47:09;;;;;;;17.17;11.07;;;;;;;;;;5049272;28;20954;-74
2022/11/29 12:49:48;;;;;;;16.48;10.18;;;;;;;;;;5046742;28;20931;-74
2022/11/29 12:52:29;;;;;;;15.25;9.35;;;;;;;;;;5051735;28;20419;-73
2022/11/29 12:55:04;;;;;;;14.80;9.68;;;;;;;;;;5074797;28;20412;-74
2022/11/29 12:58:04;;;;;;;13.73;9.68;;;10.30;99.90;;;;;;5038730;28;20568;-73
2022/11/29 13:00:35;;;;;;;14.93;9.05;;;;;;;;;;5052133;28;20420;-73
2022/11/29 13:03:29;;;;;;;12.55;8.75;;;10.30;99.90;;;;;;5053332;28;20500;-73
2022/11/29 13:06:14;;;;;;;11.33;7.50;;;;;;;;;;5048664;28;20423;-73
2022/11/29 13:08:49;;;;;;;11.02;7.38;;;;;;;;;;5040155;28;20420;-73
2022/11/29 13:11:18;;;;;;;14.73;8.73;;;;;;;;;;5050950;28;20411;-73
2022/11/29 13:13:58;;;;;;;12.60;9.68;;;;;;;;;;5053050;28;20416;-73
2022/11/29 13:16:31;;;;;;;12.18;9.18;;;;;;;;;;5024084;28;20457;-73
2022/11/29 13:19:34;;;;;;;9.77;7.53;;;10.40;99.90;;;;;;5045659;28;20438;-73
2022/11/29 13:22:05;;;;;;;11.25;7.72;;;;;;;;;;5047323;28;20935;-73
2022/11/29 13:24:58;;;;;;;13.55;9.40;;;10.40;99.90;;;;;;5052486;28;20465;-73
2022/11/29 13:27:29;;;;;;;10.43;7.88;;;;;;;;;;5046427;28;20923;-74
2022/11/29 13:29:55;;;;;;;15.00;8.35;;;;;;;;;;5043217;28;20929;-74
2022/11/29 13:32:34;;;;;;;10.48;7.07;;;;;;;;;;5027814;28;20435;-74
2022/11/29 13:35:02;;;;;;;8.50;6.43;;;;;;;;;;5014096;28;20916;-72
2022/11/29 13:37:58;;;;;;;9.73;6.10;;;;;;;;;;5004487;28;20427;-72
2022/11/29 13:40:36;;;;;;;9.27;6.53;;;;;;;;;;4999663;28;20508;-74
2022/11/29 13:43:05;;;;;;;8.63;6.50;;;;;;;;;;5019345;28;20411;-73
2022/11/29 13:45:35;;;;;;;7.90;6.15;;;;;;;;;;5007227;28;20453;-73
2022/11/29 13:48:19;;;;;;;9.07;6.13;;;;;;;;;;5025165;28;20791;-72
2022/11/29 13:50:48;;;;;;;6.70;5.43;;;;;;;;;;5011464;28;20431;-73
2022/11/29 13:53:19;;;;;;;8.40;6.20;;;;;;;;;;5004505;28;20419;-73
2022/11/29 13:55:45;;;;;;;7.05;5.75;;;;;;;;;;5030157;28;20430;-74
2022/11/29 13:58:14;;;;;;;7.97;6.20;;;;;;;;;;5001866;28;20490;-73
2022/11/29 14:00:43;;;;;;;8.57;6.30;;;;;;;;;;5026534;28;20474;-73
2022/11/29 14:03:15;;;;;;;8.48;6.20;;;;;;;;;;5025371;28;20437;-73
2022/11/29 14:05:42;;;;;;;7.70;6.25;;;;;;;;;;5029365;28;20434;-73
2022/11/29 14:08:34;;;;;;;8.45;6.78;;;;;;;;;;5013003;28;20458;-73
2022/11/29 14:11:06;;;;;;;8.82;6.80;;;;;;;;;;4976827;28;20427;-73
2022/11/29 14:13:35;;;;;;;10.70;7.82;;;;;;;;;;5019685;28;20425;-74
2022/11/29 14:16:04;;;;;;;11.30;8.43;;;9.50;99.90;;;;;;5019688;28;20423;-72
2022/11/29 14:18:36;;;;;;;12.25;8.52;;;;;;;;;;5019985;28;20435;-73
2022/11/29 14:21:03;;;;;;;11.35;8.88;;;;;;;;;;5029666;28;20969;-73
2022/11/29 14:23:39;;;;;;;13.00;9.60;;;;;;;;;;5010137;28;20437;-73
2022/11/29 14:26:05;;;;;;;12.52;9.60;;;;;;;;;;4998800;28;20954;-73
2022/11/29 14:28:31;;;;;;;12.60;9.97;;;;;;;;;;5008880;28;21088;-79
2022/11/29 14:31:01;;;;;;;13.10;9.93;;;9.50;99.90;;;;;;5025835;28;20430;-80
2022/11/29 14:33:45;;;;;;;12.20;9.60;;;;;;;;;;5025130;28;20911;-79
2022/11/29 14:36:17;;;;;;;11.20;9.52;;;;;;;;;;5027922;28;20415;-81
2022/11/29 14:39:02;;;;;;;13.85;9.68;;;;;;;;;;5007854;28;20423;-80
2022/11/29 14:41:28;;;;;;;13.73;10.05;;;;;;;;;;5024725;28;20419;-80
2022/11/29 14:44:05;;;;;;;13.65;10.32;;;;;;;;;;5015746;28;20435;-79